createdAt,value
2023-02-24T00:00:31.954Z,19.03
2023-02-24T00:03:06.207Z,18.03
2023-02-24T00:05:35.735Z,18.07
2023-02-24T00:08:03.335Z,18.20
2023-02-24T00:10:31.028Z,17.80
2023-02-24T00:12:59.245Z,17.17
2023-02-24T00:15:26.817Z,17.80
2023-02-24T00:25:47.196Z,17.53
2023-02-24T00:28:16.154Z,17.47
2023-02-24T00:30:44.808Z,17.17
2023-02-24T00:33:12.443Z,16.63
2023-02-24T00:35:40.048Z,16.77
2023-02-24T00:38:07.652Z,17.17
2023-02-24T00:40:37.108Z,15.77
2023-02-24T00:43:04.751Z,16.30
2023-02-24T00:45:39.040Z,16.60
2023-02-24T00:48:10.578Z,17.40
2023-02-24T00:50:39.102Z,15.60
2023-02-24T00:53:07.634Z,15.80
2023-02-24T00:55:36.838Z,16.27
2023-02-24T00:58:07.332Z,17.33
2023-02-24T01:00:37.671Z,16.80
2023-02-24T01:03:05.679Z,16.20
2023-02-24T01:05:36.967Z,15.90
2023-02-24T01:08:04.569Z,17.43
2023-02-24T01:10:34.384Z,17.47
2023-02-24T01:13:01.017Z,17.40
2023-02-24T03:34:17.544Z,28.53
2023-02-24T03:36:45.798Z,27.50
2023-02-24T03:39:15.729Z,27.40
2023-02-24T03:41:50.686Z,28.50
2023-02-24T03:44:18.272Z,29.03
2023-02-24T03:46:45.844Z,30.53
2023-02-24T03:49:17.304Z,28.93
2023-02-24T03:51:56.922Z,28.50
2023-02-24T03:54:42.879Z,28.37
2023-02-24T03:57:23.042Z,28.80
2023-02-24T04:00:16.763Z,29.30
2023-02-24T04:02:45.834Z,28.43
2023-02-24T04:05:21.960Z,28.87
2023-02-24T04:07:56.444Z,29.90
2023-02-24T04:10:28.566Z,29.50
2023-02-24T04:13:02.009Z,30.77
2023-02-24T04:15:37.635Z,30.30
2023-02-24T04:18:10.992Z,30.37
2023-02-24T04:20:43.702Z,29.67
2023-02-24T04:23:15.812Z,30.50
2023-02-24T04:25:46.220Z,29.90
2023-02-24T04:28:18.872Z,30.30
2023-02-24T04:30:50.795Z,30.47
2023-02-24T04:33:19.115Z,29.77
2023-02-24T04:35:51.097Z,29.10
2023-02-24T04:38:18.845Z,31.53
2023-02-24T04:40:46.563Z,30.20
2023-02-24T04:43:14.148Z,32.40
2023-02-24T04:45:41.739Z,32.10
2023-02-24T04:48:12.856Z,31.50
2023-02-24T04:50:42.900Z,30.67
2023-02-24T04:53:14.637Z,33.10
2023-02-24T04:55:48.385Z,32.10
2023-02-24T04:58:19.167Z,33.10
2023-02-24T05:00:48.920Z,32.37
2023-02-24T05:03:18.110Z,32.20
2023-02-24T05:05:51.825Z,33.70
2023-02-24T05:08:21.241Z,32.00
2023-02-24T05:10:48.832Z,30.90
2023-02-24T05:13:19.300Z,30.90
2023-02-24T05:15:49.613Z,31.57
2023-02-24T05:18:20.266Z,32.07
2023-02-24T05:21:07.461Z,32.80
2023-02-24T05:23:39.218Z,34.20
2023-02-24T05:26:09.279Z,34.10
2023-02-24T05:28:37.787Z,33.63
2023-02-24T05:31:08.327Z,33.33
2023-02-24T05:33:37.613Z,33.37
2023-02-24T05:36:06.903Z,34.80
2023-02-24T05:38:37.976Z,35.17
2023-02-24T05:41:08.120Z,34.00
2023-02-24T05:43:39.148Z,33.87
2023-02-24T05:46:07.032Z,33.90
2023-02-24T05:48:35.204Z,34.50
2023-02-24T05:51:05.231Z,36.27
2023-02-24T05:53:33.193Z,35.90
2023-02-24T05:56:04.834Z,35.63
2023-02-24T05:58:32.650Z,36.20
2023-02-24T06:01:05.788Z,36.37
2023-02-24T06:03:35.558Z,36.93
2023-02-24T06:06:08.860Z,40.07
2023-02-24T06:08:42.221Z,36.00
2023-02-24T06:11:11.826Z,37.37
2023-02-24T06:13:39.736Z,36.90
2023-02-24T06:16:08.385Z,36.90
2023-02-24T06:18:36.015Z,36.90
2023-02-24T06:21:04.595Z,38.23
2023-02-24T06:23:33.688Z,38.63
2023-02-24T06:26:03.878Z,41.13
2023-02-24T06:28:33.472Z,39.93
2023-02-24T06:31:06.662Z,40.17
2023-02-24T06:33:35.948Z,38.60
2023-02-24T06:36:05.026Z,37.70
2023-02-24T06:38:33.277Z,36.23
2023-02-24T06:41:04.045Z,38.07
2023-02-24T06:43:33.029Z,38.17
2023-02-24T06:46:03.105Z,38.97
2023-02-24T06:48:30.707Z,38.27
2023-02-24T06:50:58.924Z,39.93
2023-02-24T06:53:26.716Z,38.20
2023-02-24T06:55:55.022Z,39.17
2023-02-24T06:58:24.226Z,37.10
2023-02-24T07:00:57.700Z,39.10
2023-02-24T07:03:39.199Z,38.43
2023-02-24T07:06:24.130Z,37.97
2023-02-24T07:08:52.977Z,36.60
2023-02-24T07:11:21.918Z,38.63
2023-02-24T07:13:50.984Z,37.00
2023-02-24T07:16:25.161Z,37.53
2023-02-24T07:18:56.447Z,36.60
2023-02-24T07:21:25.088Z,36.43
2023-02-24T07:23:58.874Z,37.43
2023-02-24T07:26:30.271Z,39.93
2023-02-24T07:28:58.070Z,38.57
2023-02-24T07:31:27.190Z,38.50
2023-02-24T07:33:57.155Z,38.90
2023-02-24T07:36:30.043Z,39.17
2023-02-24T07:39:01.581Z,39.00
2023-02-24T07:41:31.311Z,38.43
2023-02-24T07:44:03.116Z,39.23
2023-02-24T07:46:32.394Z,39.20
2023-02-24T07:49:00.134Z,40.07
2023-02-24T07:51:29.458Z,43.33
2023-02-24T07:53:59.279Z,42.67
2023-02-24T07:56:28.456Z,45.20
2023-02-24T07:59:01.917Z,46.33
2023-02-24T08:01:30.665Z,44.73
2023-02-24T08:04:01.389Z,43.97
2023-02-24T08:06:37.850Z,46.60
2023-02-24T08:09:16.758Z,46.40
2023-02-24T08:11:46.131Z,46.60
2023-02-24T08:14:17.375Z,48.93
2023-02-24T08:16:46.841Z,48.50
2023-02-24T08:19:20.883Z,50.07
2023-02-24T08:21:50.452Z,50.70
2023-02-24T08:24:19.735Z,51.00
2023-02-24T08:27:03.905Z,51.90
2023-02-24T08:29:31.845Z,51.07
2023-02-24T08:31:59.735Z,54.37
2023-02-24T08:34:31.789Z,52.87
2023-02-24T08:37:00.383Z,53.67
2023-02-24T08:39:30.128Z,56.83
2023-02-24T08:41:58.212Z,56.00
2023-02-24T08:44:27.171Z,57.30
2023-02-24T08:46:56.075Z,57.73
2023-02-24T08:49:25.245Z,60.47
2023-02-24T08:51:54.569Z,61.33
2023-02-24T08:54:27.213Z,59.40
2023-02-24T08:56:57.049Z,59.87
2023-02-24T08:59:39.240Z,60.40
2023-02-24T09:02:29.231Z,60.93
2023-02-24T09:04:59.922Z,59.93
2023-02-24T09:07:35.213Z,59.80
2023-02-24T09:10:02.920Z,57.50
2023-02-24T09:12:31.722Z,56.37
2023-02-24T09:15:04.448Z,56.60
2023-02-24T09:17:49.720Z,59.00
2023-02-24T09:20:52.022Z,54.30
2023-02-24T09:23:20.995Z,51.03
2023-02-24T09:25:54.199Z,51.37
2023-02-24T09:28:24.720Z,50.93
2023-02-24T09:30:57.561Z,51.47
2023-02-24T09:33:27.638Z,48.43
2023-02-24T09:36:09.524Z,49.50
2023-02-24T09:38:57.685Z,47.23
2023-02-24T09:41:53.422Z,48.67
2023-02-24T09:44:26.866Z,48.17
2023-02-24T09:46:59.129Z,49.33
2023-02-24T09:49:39.773Z,44.20
2023-02-24T09:52:16.854Z,42.70
2023-02-24T09:55:14.348Z,44.90
2023-02-24T09:58:16.202Z,46.73
2023-02-24T10:01:00.207Z,43.70
2023-02-24T10:03:43.219Z,45.33
2023-02-24T10:06:21.041Z,45.50
2023-02-24T10:08:58.824Z,42.23
2023-02-24T10:11:34.069Z,40.57
2023-02-24T10:14:05.332Z,41.00
2023-02-24T10:16:42.401Z,44.00
2023-02-24T10:19:24.423Z,44.47
2023-02-24T10:22:02.631Z,43.00
2023-02-24T10:24:37.558Z,41.90
2023-02-24T10:27:16.979Z,40.27
2023-02-24T10:30:04.002Z,40.50
2023-02-24T10:32:38.457Z,40.10
2023-02-24T10:35:14.400Z,39.37
2023-02-24T10:37:42.556Z,38.67
2023-02-24T10:40:13.016Z,36.80
2023-02-24T10:42:47.828Z,36.80
2023-02-24T10:45:19.379Z,37.30
2023-02-24T10:47:56.507Z,37.17
2023-02-24T10:50:29.769Z,36.87
2023-02-24T10:53:26.431Z,38.00
2023-02-24T10:56:14.759Z,36.30
2023-02-24T10:58:56.588Z,34.93
2023-02-24T11:01:40.678Z,36.50
2023-02-24T11:04:22.838Z,37.00
2023-02-24T11:06:57.858Z,36.93
2023-02-24T11:09:34.778Z,36.33
2023-02-24T11:12:30.355Z,37.60
2023-02-24T11:15:21.309Z,36.00
2023-02-24T11:17:52.245Z,36.47
2023-02-24T11:20:46.081Z,35.93
2023-02-24T11:23:18.914Z,34.97
2023-02-24T11:25:49.404Z,37.70
2023-02-24T11:28:30.969Z,35.30
2023-02-24T11:31:08.457Z,38.17
2023-02-24T11:33:42.455Z,36.90
2023-02-24T11:36:17.429Z,36.17
2023-02-24T11:39:16.511Z,33.90
2023-02-24T11:41:50.867Z,35.50
2023-02-24T11:44:25.796Z,34.30
2023-02-24T11:46:58.434Z,331.17
2023-02-24T11:49:31.586Z,440.77
2023-02-24T11:52:03.891Z,386.93
2023-02-24T11:54:38.169Z,368.37
2023-02-24T11:57:13.765Z,297.10
2023-02-24T11:59:46.932Z,286.10
2023-02-24T12:02:23.410Z,263.30
2023-02-24T12:05:00.616Z,233.57
2023-02-24T12:07:34.348Z,165.23
2023-02-24T12:10:16.697Z,132.83
2023-02-24T12:12:52.470Z,89.70
2023-02-24T12:15:26.175Z,84.00
2023-02-24T12:18:04.196Z,72.43
2023-02-24T12:20:38.332Z,63.40
2023-02-24T12:23:17.201Z,52.83
2023-02-24T12:26:01.944Z,49.07
2023-02-24T12:28:44.393Z,55.80
2023-02-24T12:31:21.887Z,57.40
2023-02-24T12:34:03.830Z,60.50
2023-02-24T12:36:49.542Z,52.87
2023-02-24T12:39:22.204Z,44.53
2023-02-24T12:42:04.996Z,35.47
2023-02-24T12:44:42.157Z,31.60
2023-02-24T12:47:13.948Z,31.17
2023-02-24T12:50:07.333Z,32.07
2023-02-24T12:52:44.811Z,35.40
2023-02-24T12:55:18.946Z,32.40
2023-02-24T12:57:53.751Z,32.50
2023-02-24T13:00:26.962Z,33.00
2023-02-24T13:03:02.412Z,32.23
2023-02-24T13:05:35.634Z,47.13
2023-02-24T13:08:19.399Z,112.57
2023-02-24T13:10:51.894Z,455.73
2023-02-24T13:13:27.366Z,446.67
2023-02-24T13:15:57.521Z,439.93
2023-02-24T13:18:26.919Z,353.40
2023-02-24T13:21:09.726Z,331.43
2023-02-24T13:23:38.310Z,265.87
2023-02-24T13:26:06.068Z,224.70
2023-02-24T13:28:36.205Z,241.93
2023-02-24T13:31:06.655Z,164.87
2023-02-24T13:33:36.333Z,113.83
2023-02-24T13:36:12.586Z,105.23
2023-02-24T13:38:42.157Z,78.57
2023-02-24T13:41:24.865Z,52.53
2023-02-24T13:43:58.909Z,42.17
2023-02-24T13:46:30.786Z,38.63
2023-02-24T13:49:14.365Z,46.43
2023-02-24T13:51:59.145Z,50.47
2023-02-24T13:54:43.010Z,46.40
2023-02-24T13:57:43.350Z,44.00
2023-02-24T14:00:23.178Z,44.10
2023-02-24T14:02:53.307Z,45.30
2023-02-24T14:05:24.847Z,37.60
2023-02-24T14:07:55.107Z,36.33
2023-02-24T14:10:25.501Z,36.20
2023-02-24T14:13:01.181Z,33.70
2023-02-24T14:15:29.204Z,33.10
2023-02-24T14:17:59.549Z,30.80
2023-02-24T14:20:28.433Z,31.57
2023-02-24T14:22:59.588Z,30.40
2023-02-24T14:25:32.027Z,30.80
2023-02-24T14:27:59.604Z,30.30
2023-02-24T14:30:32.487Z,31.10
2023-02-24T14:33:00.827Z,31.10
2023-02-24T14:35:33.272Z,30.60
2023-02-24T14:38:02.651Z,30.57
2023-02-24T14:40:30.762Z,30.20
2023-02-24T14:42:58.736Z,29.03
2023-02-24T14:45:28.244Z,30.00
2023-02-24T14:47:57.242Z,31.43
2023-02-24T14:50:28.868Z,31.50
2023-02-24T14:53:01.471Z,31.00
2023-02-24T14:55:33.476Z,31.03
2023-02-24T14:58:05.898Z,30.87
2023-02-24T15:00:37.246Z,30.20
2023-02-24T15:03:12.075Z,29.57
2023-02-24T15:05:44.513Z,28.93
2023-02-24T15:08:26.915Z,28.60
2023-02-24T15:10:56.338Z,28.40
2023-02-24T15:13:31.705Z,28.60
2023-02-24T15:16:07.523Z,27.60
2023-02-24T15:18:35.211Z,28.43
2023-02-24T15:21:05.194Z,26.83
2023-02-24T15:23:35.206Z,28.40
2023-02-24T15:26:08.615Z,28.40
2023-02-24T15:28:37.836Z,28.07
2023-02-24T15:31:10.880Z,28.90
2023-02-24T15:33:40.896Z,28.23
2023-02-24T15:36:12.654Z,29.43
2023-02-24T15:38:43.140Z,31.53
2023-02-24T15:41:13.564Z,29.93
2023-02-24T15:43:47.653Z,30.57
2023-02-24T15:46:17.147Z,28.40
2023-02-24T15:48:46.311Z,31.43
2023-02-24T15:51:26.637Z,30.90
2023-02-24T15:53:54.581Z,32.13
2023-02-24T15:56:24.060Z,30.00
2023-02-24T15:58:51.905Z,31.73
2023-02-24T16:01:20.010Z,30.30
2023-02-24T16:03:47.753Z,30.20
2023-02-24T16:06:20.386Z,31.00
2023-02-24T16:08:49.523Z,31.20
2023-02-24T16:11:20.249Z,31.53
2023-02-24T16:13:53.625Z,29.63
2023-02-24T16:16:22.655Z,29.13
2023-02-24T16:18:50.506Z,29.13
2023-02-24T16:21:18.452Z,30.77
2023-02-24T16:23:46.312Z,29.57
2023-02-24T16:26:19.904Z,29.23
2023-02-24T16:28:54.323Z,29.77
2023-02-24T16:31:22.646Z,31.00
2023-02-24T16:33:54.989Z,31.07
2023-02-24T16:36:24.412Z,33.40
2023-02-24T16:38:52.273Z,31.03
2023-02-24T16:41:19.951Z,31.83
2023-02-24T16:43:49.056Z,32.13
2023-02-24T16:46:18.675Z,30.87
2023-02-24T16:48:48.775Z,30.67
2023-02-24T16:51:16.770Z,30.40
2023-02-24T16:53:44.447Z,28.90
2023-02-24T16:56:15.055Z,30.30
2023-02-24T16:58:43.087Z,29.80
2023-02-24T17:01:19.333Z,30.13
2023-02-24T17:03:48.936Z,30.60
2023-02-24T17:06:16.608Z,29.60
2023-02-24T17:08:46.056Z,30.77
2023-02-24T17:11:15.277Z,29.87
2023-02-24T17:13:43.558Z,32.50
2023-02-24T17:16:12.928Z,30.33
2023-02-24T17:18:40.529Z,31.67
2023-02-24T17:21:08.229Z,31.43
2023-02-24T17:23:35.904Z,30.90
2023-02-24T17:26:03.747Z,31.17
2023-02-24T17:28:31.804Z,31.83
2023-02-24T17:30:59.581Z,31.90
2023-02-24T17:33:28.624Z,31.43
2023-02-24T17:35:56.278Z,31.93
2023-02-24T17:38:24.927Z,31.23
2023-02-24T17:40:52.666Z,33.67
2023-02-24T17:43:20.394Z,31.80
2023-02-24T17:45:48.274Z,33.57
2023-02-24T17:48:16.826Z,34.23
2023-02-24T17:50:46.668Z,32.40
2023-02-24T17:53:14.287Z,33.77
2023-02-24T17:56:01.099Z,33.77
2023-02-24T17:58:29.533Z,33.07
2023-02-24T18:00:57.086Z,31.90
2023-02-24T18:03:24.731Z,33.57
2023-02-24T18:06:00.665Z,35.20
2023-02-24T18:08:28.458Z,35.90
2023-02-24T18:10:56.056Z,33.70
2023-02-24T18:13:24.031Z,33.83
2023-02-24T18:15:51.722Z,33.60
2023-02-24T18:18:19.530Z,31.80
2023-02-24T18:20:47.534Z,34.90
2023-02-24T18:23:16.517Z,35.50
2023-02-24T18:25:44.131Z,34.97
2023-02-24T18:28:11.823Z,34.47
2023-02-24T18:30:39.730Z,37.77
2023-02-24T18:33:07.576Z,189.90
2023-02-24T18:35:37.134Z,276.20
2023-02-24T18:38:06.508Z,236.23
2023-02-24T18:40:35.458Z,226.10
2023-02-24T18:43:03.495Z,95.03
2023-02-24T18:45:32.101Z,67.80
2023-02-24T18:48:01.776Z,45.47
2023-02-24T18:50:29.359Z,38.33
2023-02-24T18:52:56.904Z,35.33
2023-02-24T18:55:24.592Z,32.13
2023-02-24T18:57:53.501Z,31.23
2023-02-24T19:00:21.576Z,29.03
2023-02-24T19:02:49.266Z,28.73
2023-02-24T19:05:17.073Z,28.87
2023-02-24T19:07:44.612Z,29.80
2023-02-24T19:10:12.931Z,28.30
2023-02-24T19:12:40.467Z,28.90
2023-02-24T19:15:10.332Z,28.37
2023-02-24T19:17:38.482Z,28.10
2023-02-24T19:20:07.417Z,27.60
2023-02-24T19:22:35.008Z,27.33
2023-02-24T19:25:02.658Z,27.23
2023-02-24T19:27:30.434Z,27.67
2023-02-24T19:29:58.068Z,27.13
2023-02-24T19:32:27.520Z,27.70
2023-02-24T19:34:55.303Z,26.67
2023-02-24T19:37:22.884Z,27.00
2023-02-24T19:39:50.792Z,27.07
2023-02-24T19:42:18.454Z,27.23
2023-02-24T19:44:46.500Z,27.20
2023-02-24T19:47:14.103Z,26.30
2023-02-24T19:49:43.059Z,26.70
2023-02-24T19:52:11.020Z,26.93
2023-02-24T19:54:38.633Z,28.13
2023-02-24T19:57:07.130Z,26.17
2023-02-24T19:59:35.811Z,26.77
2023-02-24T20:02:03.671Z,26.83
2023-02-24T20:04:31.592Z,26.70
2023-02-24T20:07:00.600Z,26.80
2023-02-24T20:09:28.167Z,27.60
2023-02-24T20:11:57.222Z,26.50
2023-02-24T20:14:29.279Z,27.70
2023-02-24T20:16:56.917Z,28.00
2023-02-24T20:19:25.595Z,26.17
2023-02-24T20:21:53.255Z,25.37
2023-02-24T20:24:22.309Z,27.83
2023-02-24T20:26:51.001Z,25.90
2023-02-24T20:29:21.613Z,27.40
2023-02-24T20:31:49.679Z,26.80
2023-02-24T20:34:17.678Z,26.47
2023-02-24T20:36:45.611Z,26.80
2023-02-24T20:39:13.364Z,26.93
2023-02-24T20:41:42.787Z,27.40
2023-02-24T20:44:10.787Z,26.97
2023-02-24T20:46:39.639Z,27.13
2023-02-24T20:49:08.907Z,27.20
2023-02-24T20:51:38.061Z,26.70
2023-02-24T20:54:06.278Z,26.37
2023-02-24T20:56:36.717Z,27.33
2023-02-24T20:59:08.055Z,26.77
2023-02-24T21:01:36.782Z,26.73
2023-02-24T21:04:04.950Z,26.30
2023-02-24T21:06:33.177Z,26.40
2023-02-24T21:09:01.020Z,25.90
2023-02-24T21:11:30.004Z,27.57
2023-02-24T21:13:57.857Z,27.73
2023-02-24T21:16:27.920Z,27.13
2023-02-24T21:18:58.010Z,26.93
2023-02-24T21:21:25.975Z,26.83
2023-02-24T21:23:53.606Z,27.00
2023-02-24T21:26:21.458Z,27.90
2023-02-24T21:28:49.524Z,26.03
2023-02-24T21:31:20.288Z,25.20
2023-02-24T21:33:52.662Z,25.53
2023-02-24T21:36:23.358Z,26.10
2023-02-24T21:38:51.274Z,26.43
2023-02-24T21:41:20.274Z,25.37
2023-02-24T21:43:50.486Z,26.60
2023-02-24T21:46:18.226Z,25.80
2023-02-24T21:48:46.438Z,26.27
2023-02-24T21:51:15.543Z,26.17
2023-02-24T21:53:44.339Z,27.40
2023-02-24T21:56:16.377Z,25.40
2023-02-24T21:58:45.927Z,25.13
2023-02-24T22:01:16.455Z,25.20
2023-02-24T22:03:44.482Z,25.40
2023-02-24T22:06:13.261Z,25.80
2023-02-24T22:08:45.189Z,25.47
2023-02-24T22:11:14.670Z,25.23
2023-02-24T22:13:43.062Z,25.83
2023-02-24T22:16:13.221Z,25.70
2023-02-24T22:18:40.924Z,25.70
2023-02-24T22:21:09.248Z,26.83
2023-02-24T22:23:37.006Z,26.10
2023-02-24T22:26:07.995Z,25.97
2023-02-24T22:28:38.117Z,25.40
2023-02-24T22:31:06.852Z,26.43
2023-02-24T22:33:37.133Z,26.80
2023-02-24T22:36:05.897Z,25.80
2023-02-24T22:38:33.536Z,25.83
2023-02-24T22:41:02.520Z,26.50
2023-02-24T22:43:31.822Z,26.27
2023-02-24T22:46:00.618Z,25.67
2023-02-24T22:48:28.612Z,26.77
2023-02-24T22:50:57.353Z,25.93
2023-02-24T22:53:25.853Z,26.10
2023-02-24T22:55:53.416Z,25.53
2023-02-24T22:58:22.464Z,25.67
2023-02-24T23:00:53.477Z,25.23
2023-02-24T23:03:23.727Z,25.73
2023-02-24T23:05:55.487Z,24.90
2023-02-24T23:08:23.596Z,25.50
2023-02-24T23:10:51.792Z,24.80
2023-02-24T23:13:20.727Z,24.40
2023-02-24T23:15:48.382Z,24.40
2023-02-24T23:18:18.108Z,23.50
2023-02-24T23:20:46.538Z,25.63
2023-02-24T23:23:14.541Z,24.50
2023-02-24T23:25:42.158Z,24.40
2023-02-24T23:28:09.762Z,24.50
2023-02-24T23:30:41.729Z,25.13
2023-02-24T23:33:11.016Z,24.60
2023-02-24T23:35:40.759Z,23.83
2023-02-24T23:38:09.051Z,23.70
2023-02-24T23:40:49.475Z,24.97
2023-02-24T23:43:17.879Z,25.70
2023-02-24T23:45:45.684Z,25.83
2023-02-24T23:48:15.035Z,26.27
2023-02-24T23:50:45.816Z,25.10
2023-02-24T23:53:13.403Z,25.93
2023-02-24T23:55:42.159Z,25.80
2023-02-24T23:58:09.835Z,26.90
